Data for 02/17/2005

Time Sea-Level Adjusted Pressure Absolute Pressure Temperature Relative Humidity Dew Point   
(mb) (inHg) (mb) (inHg) (C) (F) (%) (C) (F)
00:05 1022 30.18 851 25.13 -7.1 19.2 61 -13.5 7.7
00:10 1022 30.18 851 25.13 -7 19.5 61 -13.3 8
00:15 1022 30.18 851 25.13 -7.1 19.3 59 -13.8 7.1
00:20 1022 30.18 851 25.13 -7.3 18.9 64 -13 8.5
00:25 1022 30.18 851 25.13 -7.3 18.9 63 -13.3 8.1
00:30 1022 30.18 851 25.13 -7.4 18.7 63 -13.3 8.1
00:35 1022 30.18 851 25.13 -7.5 18.5 64 -13.2 8.3
00:40 1022 30.18 851 25.13 -8.1 17.5 67 -13.1 8.3
00:45 1022 30.18 851 25.13 -8 17.6 66 -13.3 8.1
00:50 1022 30.18 851 25.13 -8 17.5 67 -13.1 8.4
00:55 1022 30.18 851 25.13 -8.3 17.1 68 -13.2 8.2
01:00 1022 30.18 851 25.13 -8.6 16.5 69 -13.3 8
01:05 1022 30.18 852 25.16 -8.7 16.4 68 -13.5 7.6
01:10 1022 30.18 852 25.16 -8.5 16.7 68 -13.3 8
01:15 1023 30.21 852 25.16 -8.7 16.4 69 -13.4 7.9
01:20 1022 30.18 852 25.16 -8.5 16.7 67 -13.5 7.6
01:25 1022 30.18 852 25.16 -8.1 17.3 66 -13.4 7.8
01:30 1023 30.21 852 25.16 -8.1 17.3 66 -13.4 7.9
01:35 1023 30.21 852 25.16 -8 17.5 66 -13.4 7.9
01:40 1023 30.21 852 25.16 -8 17.5 64 -13.6 7.4
01:45 1023 30.21 852 25.16 -7.4 18.6 58 -14.3 6.3
01:50 1023 30.21 852 25.16 -7.2 19.1 57 -14.3 6.3
01:55 1023 30.21 852 25.16 -7.2 19 58 -14.2 6.5
02:00 1023 30.21 852 25.16 -7.3 18.9 59 -13.9 6.9
02:05 1023 30.21 852 25.16 -7.7 18.2 63 -13.6 7.5
02:10 1023 30.21 852 25.16 -7.9 17.8 65 -13.4 7.9
02:15 1023 30.21 852 25.16 -7.6 18.4 67 -12.7 9.1
02:20 1023 30.21 852 25.16 -7.3 18.9 63 -13.2 8.3
02:25 1023 30.21 852 25.16 -7.1 19.2 61 -13.5 7.7
02:30 1023 30.21 852 25.16 -7.3 18.9 63 -13.3 8.1
02:35 1023 30.21 852 25.16 -7.4 18.7 63 -13.3 8
02:40 1023 30.21 852 25.16 -7.3 18.8 64 -13.1 8.5
02:45 1023 30.21 852 25.16 -7.1 19.1 63 -13 8.6
02:50 1023 30.21 852 25.16 -6.9 19.6 60 -13.5 7.8
02:55 1022 30.18 852 25.16 -6.5 20.3 58 -13.5 7.7
03:00 1022 30.18 852 25.16 -7.1 19.3 61 -13.4 7.9
03:05 1022 30.18 852 25.16 -7 19.4 56 -14.3 6.3
03:10 1022 30.18 852 25.16 -6.8 19.8 57 -13.8 7.1
03:15 1022 30.18 851 25.13 -7.4 18.7 61 -13.7 7.3
03:20 1022 30.18 851 25.13 -7.8 18 60 -14.2 6.4
03:25 1022 30.18 851 25.13 -7.9 17.9 61 -14.1 6.5
03:30 1022 30.18 851 25.13 -7.9 17.8 60 -14.3 6.2
03:35 1022 30.18 851 25.13 -7.5 18.4 57 -14.7 5.6
03:40 1022 30.18 851 25.13 -7 19.4 54 -14.8 5.3
03:45 1022 30.18 851 25.13 -6.7 19.9 55 -14.4 6.1
03:50 1022 30.18 851 25.13 -7 19.4 56 -14.3 6.2
03:55 1022 30.18 851 25.13 -7.5 18.4 57 -14.6 5.7
04:00 1022 30.18 851 25.13 -7.5 18.6 55 -15 5.1
04:05 1022 30.18 851 25.13 -7.5 18.6 56 -14.9 5.2
04:10 1022 30.18 851 25.13 -7.5 18.6 60 -14 6.8
04:15 1022 30.18 851 25.13 -7.4 18.7 58 -14.4 6.2
04:20 1022 30.18 851 25.13 -7.3 18.8 58 -14.3 6.3
04:25 1022 30.18 851 25.13 -7.2 19 57 -14.4 6
04:30 1022 30.18 851 25.13 -7.2 19.1 56 -14.6 5.8
04:35 1022 30.18 851 25.13 -7.3 18.8 57 -14.5 5.9
04:40 1022 30.18 851 25.13 -7.3 19 55 -14.8 5.3
04:45 1022 30.18 851 25.13 -6.7 19.9 58 -13.8 7.2
04:50 1022 30.18 851 25.13 -6.7 20 53 -14.7 5.5
04:55 1022 30.18 851 25.13 -6.3 20.7 53 -14.3 6.3
05:00 1022 30.18 851 25.13 -7.5 18.4 61 -13.7 7.3
05:05 1022 30.18 851 25.13 -8.3 17 61 -14.7 5.6
05:10 1022 30.18 851 25.13 -8.4 17 61 -14.6 5.7
05:15 1022 30.18 851 25.13 -8.5 16.7 62 -14.6 5.7
05:20 1022 30.18 851 25.13 -8.4 17 67 -13.5 7.7
05:25 1022 30.18 851 25.13 -8.1 17.5 61 -14.3 6.2
05:30 1022 30.18 851 25.13 -8.1 17.5 63 -13.9 6.9
05:35 1022 30.18 851 25.13 -8.1 17.4 63 -13.9 7
05:40 1022 30.18 851 25.13 -8.3 17 65 -13.8 7.1
05:45 1022 30.18 851 25.13 -8.5 16.7 63 -14.3 6.3
05:50 1022 30.18 851 25.13 -8.7 16.4 63 -14.5 5.9
05:55 1022 30.18 852 25.16 -9.2 15.5 65 -14.5 5.9
06:00 1022 30.18 852 25.16 -9.5 14.9 67 -14.4 6
06:05 1022 30.18 852 25.16 -9.1 15.7 63 -14.8 5.4
06:10 1022 30.18 852 25.16 -8.7 16.3 63 -14.6 5.7
06:15 1022 30.18 851 25.13 -8.4 16.9 63 -14.3 6.2
06:20 1022 30.18 852 25.16 -8.1 17.4 60 -14.5 5.9
06:25 1022 30.18 852 25.16 -8 17.6 62 -14.1 6.7
06:30 1022 30.18 852 25.16 -8.4 16.9 64 -14.1 6.7
06:35 1022 30.18 852 25.16 -8.5 16.8 63 -14.2 6.4
06:40 1022 30.18 852 25.16 -8.9 16 64 -14.6 5.8
06:45 1022 30.18 852 25.16 -9 15.8 66 -14.2 6.5
06:50 1022 30.18 852 25.16 -9.2 15.5 67 -14.2 6.4
06:55 1022 30.18 852 25.16 -8.7 16.3 66 -14 6.8
07:00 1022 30.18 852 25.16 -8.3 17 64 -13.9 7
07:05 1022 30.18 852 25.16 -8.3 17.1 65 -13.8 7.2
07:10 1022 30.18 852 25.16 -8.3 17 65 -13.8 7.2
07:15 1023 30.21 852 25.16 -8.4 16.9 65 -13.8 7.2
07:20 1022 30.18 852 25.16 -8.6 16.6 66 -13.8 7.1
07:25 1023 30.21 852 25.16 -8.8 16.2 66 -14 6.7
07:30 1023 30.21 852 25.16 -8.7 16.4 65 -14.2 6.5
07:35 1023 30.21 852 25.16 -8.6 16.5 64 -14.2 6.5
07:40 1023 30.21 852 25.16 -8.5 16.7 64 -14.1 6.5
07:45 1023 30.21 852 25.16 -8.8 16.2 64 -14.3 6.2
07:50 1023 30.21 852 25.16 -8.3 17.1 61 -14.6 5.7
07:55 1023 30.21 852 25.16 -7.8 17.9 60 -14.3 6.2
08:00 1023 30.21 852 25.16 -7.8 18 61 -14 6.7
08:05 1023 30.21 852 25.16 -7.7 18.2 60 -14.3 6.3
08:10 1023 30.21 852 25.16 -7.6 18.4 58 -14.5 6
08:15 1023 30.21 852 25.16 -7.5 18.4 57 -14.7 5.5
08:20 1023 30.21 852 25.16 -7.5 18.5 57 -14.7 5.5
08:25 1023 30.21 852 25.16 -7.5 18.4 57 -14.7 5.6
08:30 1023 30.21 852 25.16 -7.3 18.9 56 -14.7 5.6
08:35 1023 30.21 852 25.16 -7.1 19.2 54 -14.9 5.2
08:40 1023 30.21 852 25.16 -6.9 19.6 54 -14.6 5.6
08:45 1023 30.21 852 25.16 -6.4 20.4 53 -14.5 5.9
08:50 1023 30.21 852 25.16 -6.3 20.7 53 -14.4 6.1
08:55 1023 30.21 853 25.19 -5.9 21.5 52 -14.3 6.3
09:00 1023 30.21 853 25.19 -5 23 49 -14.2 6.4
09:05 1023 30.21 853 25.19 -4.4 24 49 -13.7 7.3
09:10 1023 30.21 853 25.19 -4.6 23.8 48 -14.1 6.7
09:15 1023 30.21 853 25.19 -4.9 23.2 49 -14 6.9
09:20 1023 30.21 853 25.19 -4.8 23.4 47 -14.4 6.1
09:25 1023 30.21 853 25.19 -4.3 24.3 46 -14.2 6.5
09:30 1024 30.24 853 25.19 -3.7 25.3 44 -14.4 6.2
09:35 1024 30.24 853 25.19 -3.5 25.7 42 -14.6 5.7
09:40 1024 30.24 853 25.19 -3.3 26.1 41 -14.6 5.7
09:45 1024 30.24 853 25.19 -2.4 27.8 39 -14.4 6.1
09:50 1024 30.24 853 25.19 -2.2 28 39 -14.6 5.8
09:55 1024 30.24 853 25.19 -1.7 29 35 -15.2 4.7
10:00 1024 30.24 853 25.19 -1.2 29.9 35 -14.9 5.1
10:05 1024 30.24 853 25.19 -0.8 30.6 35 -14.6 5.7
10:10 1024 30.24 853 25.19 -0.6 30.9 33 -15 5
10:15 1024 30.24 853 25.19 -0.5 31 32 -15.2 4.6
10:20 1024 30.24 853 25.19 0 32 33 -14.4 6.1
10:25 1024 30.24 853 25.19 -0.1 31.8 31 -15.4 4.3
10:30 1024 30.24 853 25.19 -0 32 29 -16.1 3
10:35 1023 30.21 853 25.19 0.1 32.1 32 -14.6 5.7
10:40 1023 30.21 853 25.19 -0.1 31.8 29 -16.3 2.7
10:45 1023 30.21 853 25.19 -0.1 31.9 30 -15.8 3.6
10:50 1023 30.21 853 25.19 -0 31.9 28 -16.6 2.1
10:55 1023 30.21 853 25.19 -0.1 31.8 28 -16.6 2.1
11:00 1023 30.21 853 25.19 -0.2 31.6 27 -17 1.3
11:05 1023 30.21 853 25.19 -0.2 31.6 28 -16.9 1.7
11:10 1023 30.21 853 25.19 -0.2 31.6 27 -17.2 1
11:15 1023 30.21 853 25.19 -0.1 31.8 29 -16.3 2.6
11:20 1023 30.21 852 25.16 -0 31.9 28 -16.4 2.5
11:25 1023 30.21 852 25.16 0.1 32.1 29 -15.8 3.5
11:30 1023 30.21 852 25.16 0.5 32.9 28 -16 3.2
11:35 1023 30.21 852 25.16 0.8 33.4 28 -16 3.2
11:40 1023 30.21 852 25.16 0.9 33.6 29 -15.2 4.7
11:45 1023 30.21 852 25.16 0.8 33.4 30 -15 5
11:50 1023 30.21 852 25.16 0.8 33.5 30 -14.9 5.1
11:55 1023 30.21 852 25.16 1.4 34.4 29 -14.9 5.3
12:00 1023 30.21 852 25.16 1.7 35 29 -14.7 5.5
12:05 1023 30.21 852 25.16 1.9 35.3 29 -14.6 5.7
12:10 1023 30.21 852 25.16 2.2 35.9 29 -13.9 7
12:15 1023 30.21 852 25.16 2.4 36.3 28 -14.2 6.5
12:20 1023 30.21 852 25.16 2.9 37.2 27 -14.3 6.2
12:25 1023 30.21 852 25.16 2.5 36.5 28 -14.3 6.3
12:30 1023 30.21 852 25.16 2.7 36.8 30 -13.3 8
12:35 1022 30.18 852 25.16 3.3 37.9 28 -13.5 7.7
12:40 1022 30.18 852 25.16 3.9 39 29 -12.7 9.1
12:45 1022 30.18 852 25.16 4.2 39.6 27 -13.1 8.5
12:50 1022 30.18 852 25.16 4.5 40.1 26 -13.3 8
12:55 1022 30.18 852 25.16 3.8 38.9 26 -13.8 7.1
13:00 1022 30.18 852 25.16 3.9 39 27 -13.4 7.9
13:05 1022 30.18 851 25.13 3.4 38.2 27 -14 6.8
13:10 1022 30.18 851 25.13 3.6 38.6 29 -12.9 8.8
13:15 1022 30.18 851 25.13 4.1 39.4 29 -12.4 9.8
13:20 1022 30.18 851 25.13 4 39.3 30 -12 10.4
13:25 1022 30.18 851 25.13 4.3 39.7 29 -12.3 9.9
13:30 1022 30.18 851 25.13 4.4 40 28 -12.6 9.3
13:35 1022 30.18 851 25.13 3.8 38.8 30 -12.4 9.6
13:40 1022 30.18 851 25.13 3.5 38.3 31 -12.3 9.9
13:45 1022 30.18 851 25.13 3.9 39 29 -12.4 9.6
13:50 1022 30.18 851 25.13 3.3 37.9 31 -12.4 9.7
13:55 1022 30.18 851 25.13 2.9 37.2 31 -12.6 9.3
14:00 1022 30.18 851 25.13 3.1 37.7 31 -12.5 9.6
14:05 1022 30.18 851 25.13 3.5 38.4 29 -13.1 8.4
14:10 1022 30.18 851 25.13 3.7 38.6 27 -13.5 7.7
14:15 1022 30.18 851 25.13 4.1 39.4 29 -12.6 9.3
14:20 1022 30.18 851 25.13 4.4 39.9 28 -12.6 9.3
14:25 1022 30.18 851 25.13 5 41 27 -12.5 9.5
14:30 1022 30.18 851 25.13 4.8 40.7 28 -12.4 9.7
14:35 1021 30.15 851 25.13 4.4 39.9 27 -12.9 8.7
14:40 1021 30.15 851 25.13 4.8 40.6 26 -13.2 8.3
14:45 1021 30.15 851 25.13 5.4 41.7 25 -13.1 8.5
14:50 1021 30.15 851 25.13 5.4 41.8 26 -12.5 9.6
14:55 1021 30.15 851 25.13 5.5 42 26 -12.7 9.1
15:00 1021 30.15 851 25.13 5.6 42.1 24 -13.3 8.1
15:05 1021 30.15 850 25.1 5.6 42 25 -13.1 8.4
15:10 1021 30.15 850 25.1 6.1 43 24 -13.1 8.5
15:15 1021 30.15 850 25.1 5.8 42.5 24 -13.3 8
15:20 1021 30.15 850 25.1 5.8 42.4 25 -13 8.5
15:25 1021 30.15 850 25.1 6.5 43.7 22 -13.6 7.6
15:30 1021 30.15 850 25.1 6.6 43.9 18 -15.9 3.3
15:35 1021 30.15 850 25.1 6.5 43.7 23 -13.2 8.3
15:40 1021 30.15 850 25.1 5.9 42.6 27 -11.9 10.5
15:45 1021 30.15 850 25.1 5 41 26 -13.2 8.3
15:50 1021 30.15 850 25.1 4.9 40.9 25 -13.3 8
15:55 1021 30.15 850 25.1 4.9 40.9 25 -13.6 7.5
16:00 1021 30.15 850 25.1 5.2 41.4 24 -13.8 7.2
16:05 1021 30.15 850 25.1 5.3 41.5 25 -13.5 7.8
16:10 1021 30.15 850 25.1 5.4 41.8 23 -14.4 6.1
16:15 1021 30.15 850 25.1 4.9 40.7 22 -15.3 4.5
16:20 1021 30.15 850 25.1 4.7 40.4 23 -15 5
16:25 1021 30.15 850 25.1 5.1 41.1 22 -14.9 5.2
16:30 1021 30.15 850 25.1 5.1 41.2 21 -15.6 3.9
16:35 1021 30.15 850 25.1 5.1 41.2 20 -16 3.2
16:40 1021 30.15 850 25.1 4.9 40.8 23 -14.8 5.3
16:45 1021 30.15 850 25.1 4.9 40.9 21 -15.6 4
16:50 1021 30.15 850 25.1 4.9 40.9 22 -15 4.9
16:55 1020 30.12 850 25.1 5.1 41.1 22 -15.2 4.7
17:00 1020 30.12 850 25.1 5.4 41.7 22 -14.7 5.5
17:05 1020 30.12 850 25.1 5.1 41.2 20 -16.2 2.9
17:10 1020 30.12 850 25.1 4.7 40.4 22 -15.2 4.6
17:15 1020 30.12 850 25.1 4.3 39.8 23 -15.1 4.8
17:20 1020 30.12 850 25.1 3.9 39.1 23 -15.4 4.3
17:25 1020 30.12 850 25.1 4 39.2 27 -13.6 7.6
17:30 1020 30.12 850 25.1 3.7 38.6 28 -13.2 8.2
17:35 1020 30.12 850 25.1 3.2 37.7 31 -12.4 9.6
17:40 1020 30.12 850 25.1 2.6 36.8 32 -12.6 9.3
17:45 1020 30.12 850 25.1 2.7 36.9 33 -12.1 10.1
17:50 1020 30.12 850 25.1 2.2 36 35 -11.6 11.2
17:55 1020 30.12 850 25.1 1.5 34.6 39 -11.1 12
18:00 1020 30.12 850 25.1 1.2 34.1 40 -11.2 11.9
18:05 1020 30.12 850 25.1 0.8 33.5 41 -11 12.2
18:10 1020 30.12 850 25.1 0.6 33.1 41 -11.1 12.1
18:15 1021 30.15 850 25.1 0.2 32.3 44 -10.8 12.5
18:20 1021 30.15 850 25.1 -0.4 31.2 44 -11.3 11.6
18:25 1021 30.15 850 25.1 -0.8 30.6 46 -10.9 12.4
18:30 1021 30.15 850 25.1 -1.2 29.9 48 -11 12.2
18:35 1021 30.15 850 25.1 -1.4 29.6 47 -11.2 11.8
18:40 1021 30.15 850 25.1 -1.3 29.7 47 -11.2 11.8
18:45 1021 30.15 850 25.1 -1.3 29.7 46 -11.5 11.3
18:50 1021 30.15 850 25.1 -1.1 30.1 46 -11.2 11.8
18:55 1021 30.15 850 25.1 -1.3 29.7 44 -12 10.4
19:00 1021 30.15 850 25.1 -1.2 29.9 44 -12.1 10.2
19:05 1021 30.15 850 25.1 -1.1 30.1 42 -12.4 9.6
19:10 1021 30.15 850 25.1 -1.1 30 45 -11.6 11.1
19:15 1021 30.15 850 25.1 -1.2 29.9 46 -11.5 11.3
19:20 1021 30.15 850 25.1 -1.3 29.7 46 -11.4 11.6
19:25 1021 30.15 850 25.1 -1.4 29.5 47 -11.3 11.6
19:30 1021 30.15 850 25.1 -1.6 29.1 47 -11.4 11.5
19:35 1021 30.15 850 25.1 -1.8 28.7 49 -11.2 11.8
19:40 1021 30.15 850 25.1 -1.9 28.6 49 -11.3 11.7
19:45 1021 30.15 850 25.1 -2.1 28.3 49 -11.4 11.4
19:50 1021 30.15 850 25.1 -2.2 28.1 49 -11.4 11.5
19:55 1020 30.12 850 25.1 -2.3 27.9 50 -11.3 11.6
20:00 1020 30.12 850 25.1 -2.4 27.7 50 -11.5 11.2
20:05 1021 30.15 850 25.1 -2.2 28.1 49 -11.6 11.2
20:10 1020 30.12 850 25.1 -2.1 28.2 47 -12.1 10.2
20:15 1020 30.12 850 25.1 -1.9 28.6 46 -12 10.4
20:20 1020 30.12 850 25.1 -2 28.4 48 -11.7 11
20:25 1020 30.12 850 25.1 -1.9 28.6 47 -11.9 10.6
20:30 1020 30.12 850 25.1 -2 28.4 48 -11.6 11.2
20:35 1020 30.12 850 25.1 -2.2 28.1 48 -11.7 11
20:40 1020 30.12 850 25.1 -2 28.4 45 -12.5 9.5
20:45 1020 30.12 850 25.1 -1.8 28.8 44 -12.5 9.5
20:50 1020 30.12 850 25.1 -1.8 28.8 43 -12.7 9.2
20:55 1020 30.12 850 25.1 -1.7 29 42 -12.9 8.8
21:00 1020 30.12 849 25.07 -1.8 28.8 42 -13.1 8.5
21:05 1020 30.12 849 25.07 -1.9 28.7 43 -13 8.7
21:10 1020 30.12 849 25.07 -2.1 28.3 44 -12.7 9.1
21:15 1020 30.12 849 25.07 -2.1 28.2 44 -12.9 8.8
21:20 1020 30.12 849 25.07 -2.1 28.3 45 -12.4 9.6
21:25 1020 30.12 849 25.07 -2.2 28 46 -12.3 9.8
21:30 1020 30.12 849 25.07 -2.4 27.6 46 -12.5 9.5
21:35 1020 30.12 849 25.07 -2.1 28.3 43 -13 8.5
21:40 1020 30.12 849 25.07 -1.8 28.7 43 -12.7 9.2
21:45 1020 30.12 849 25.07 -1.7 28.9 43 -12.7 9.1
21:50 1020 30.12 849 25.07 -2.2 28.1 45 -12.5 9.6
21:55 1020 30.12 849 25.07 -2.6 27.3 44 -13.4 7.9
22:00 1020 30.12 849 25.07 -2.7 27.1 45 -13.1 8.4
22:05 1020 30.12 849 25.07 -2.5 27.5 43 -13.5 7.8
22:10 1020 30.12 849 25.07 -2.5 27.5 44 -13.3 8.1
22:15 1020 30.12 849 25.07 -2.6 27.2 46 -12.8 8.9
22:20 1020 30.12 849 25.07 -3.1 26.5 48 -12.6 9.4
22:25 1020 30.12 849 25.07 -3 26.6 45 -13.2 8.2
22:30 1020 30.12 849 25.07 -2.5 27.5 43 -13.5 7.6
22:35 1020 30.12 849 25.07 -2.3 27.9 41 -13.9 7
22:40 1020 30.12 849 25.07 -2.1 28.2 40 -14 6.9
22:45 1020 30.12 849 25.07 -2.3 27.8 42 -13.6 7.5
22:50 1020 30.12 849 25.07 -2.7 27.2 43 -13.7 7.3
22:55 1020 30.12 849 25.07 -2.9 26.8 43 -13.7 7.3
23:00 1020 30.12 849 25.07 -3 26.5 44 -13.7 7.3
23:05 1020 30.12 849 25.07 -3.1 26.4 44 -13.7 7.3
23:10 1020 30.12 849 25.07 -3.1 26.4 44 -13.8 7.2
23:15 1020 30.12 849 25.07 -3.1 26.5 43 -13.9 7
23:20 1020 30.12 849 25.07 -3.2 26.3 44 -13.9 7
23:25 1020 30.12 849 25.07 -3.2 26.2 44 -13.8 7.2
23:30 1019 30.09 849 25.07 -3.4 26 45 -13.8 7.2
23:35 1019 30.09 849 25.07 -3.4 25.8 45 -13.8 7.2
23:40 1019 30.09 849 25.07 -3.4 25.9 44 -13.8 7.1
23:45 1019 30.09 849 25.07 -3.4 25.9 45 -13.7 7.4
23:50 1019 30.09 849 25.07 -3.3 26 45 -13.6 7.6
23:55 1019 30.09 849 25.07 -3.3 26 45 -13.5 7.6
24:00 1019 30.09 849 25.07 -3.4 25.8 46 -13.5 7.7